createdAt,value
2022-12-03T00:01:36.428Z,102322.53
2022-12-03T00:05:35.966Z,102327.88
2022-12-03T00:09:38.255Z,102331.72
2022-12-03T00:13:37.738Z,102342.06
2022-12-03T00:17:37.287Z,102354.13
2022-12-03T00:21:36.688Z,102350.47
2022-12-03T00:25:37.855Z,102339.13
2022-12-03T00:29:37.393Z,102350.84
2022-12-03T00:33:36.864Z,102334.19
2022-12-03T00:37:36.639Z,102341.50
2022-12-03T00:41:38.286Z,102325.44
2022-12-03T00:45:37.719Z,102346.88
2022-12-03T00:49:37.262Z,102351.00
2022-12-03T00:53:36.834Z,102330.47
2022-12-03T00:57:38.156Z,102358.78
2022-12-03T01:01:37.690Z,102363.97
2022-12-03T01:05:37.047Z,102305.59
2022-12-03T01:09:36.579Z,102359.88
2022-12-03T01:13:38.320Z,102346.81
2022-12-03T01:17:38.063Z,102360.00
2022-12-03T01:21:37.609Z,102362.53
2022-12-03T01:25:37.407Z,102365.53
2022-12-03T01:29:39.036Z,102368.22
2022-12-03T01:33:38.592Z,102372.81
2022-12-03T01:37:37.568Z,102371.38
2022-12-03T01:41:38.141Z,102349.34
2022-12-03T01:45:39.874Z,102335.94
2022-12-03T01:49:43.037Z,102353.69
2022-12-03T01:53:43.095Z,102385.31
2022-12-03T01:57:45.440Z,102338.09
2022-12-03T02:01:47.091Z,102383.81
2022-12-03T02:05:46.683Z,102375.53
2022-12-03T02:09:45.956Z,102370.78
2022-12-03T02:13:46.809Z,102375.44
2022-12-03T02:17:48.211Z,102380.97
2022-12-03T02:21:55.918Z,102370.22
2022-12-03T02:25:57.550Z,102384.34
2022-12-03T02:29:57.504Z,102361.06
2022-12-03T02:33:57.123Z,102382.47
2022-12-03T02:37:59.929Z,102383.13
2022-12-03T02:42:19.897Z,102396.84
2022-12-03T02:46:19.440Z,102384.53
2022-12-03T02:50:21.476Z,102399.09
2022-12-03T02:54:21.177Z,102397.56
2022-12-03T02:58:23.987Z,102393.19
2022-12-03T03:02:23.854Z,102395.44
2022-12-03T03:06:23.928Z,102389.28
2022-12-03T03:10:25.889Z,102383.84
2022-12-03T03:14:27.710Z,102389.00
2022-12-03T03:18:27.566Z,102393.44
2022-12-03T03:22:34.837Z,102396.28
2022-12-03T03:26:34.447Z,102387.09
2022-12-03T03:30:37.096Z,102384.50
2022-12-03T03:34:36.156Z,102400.13
2022-12-03T03:38:36.027Z,102403.63
2022-12-03T03:42:35.946Z,102403.63
2022-12-03T03:46:38.911Z,102377.75
2022-12-03T03:50:38.802Z,102373.44
2022-12-03T03:54:39.074Z,102407.59
2022-12-03T03:58:39.331Z,102411.25
2022-12-03T04:02:42.286Z,102404.84
2022-12-03T04:06:41.886Z,102412.88
2022-12-03T04:10:57.581Z,102388.09
2022-12-03T04:14:56.994Z,102415.09
2022-12-03T04:18:58.667Z,102415.34
2022-12-03T04:22:58.271Z,102420.59
2022-12-03T04:27:20.532Z,102415.53
2022-12-03T04:31:36.546Z,102411.31
2022-12-03T04:35:44.466Z,102417.66
2022-12-03T04:39:44.217Z,102399.88
2022-12-03T04:43:56.171Z,102388.53
2022-12-03T04:47:55.678Z,102418.94
2022-12-03T04:51:57.350Z,102424.38
2022-12-03T04:55:56.862Z,102431.69
2022-12-03T04:59:56.379Z,102436.97
2022-12-03T05:03:56.144Z,102431.72
2022-12-03T05:07:57.529Z,102436.16
2022-12-03T05:11:57.109Z,102439.25
2022-12-03T05:15:56.289Z,102417.03
2022-12-03T05:20:12.163Z,102446.72
2022-12-03T05:24:13.293Z,102401.19
2022-12-03T05:28:12.851Z,102446.78
2022-12-03T05:32:12.320Z,102441.69
2022-12-03T05:36:12.221Z,102441.25
2022-12-03T05:40:15.220Z,102451.78
2022-12-03T05:44:18.974Z,102454.50
2022-12-03T05:48:19.993Z,102458.28
2022-12-03T05:52:19.469Z,102445.53
2022-12-03T05:56:21.207Z,102449.75
2022-12-03T06:00:23.835Z,102473.38
2022-12-03T06:04:23.450Z,102476.97
2022-12-03T06:08:22.665Z,102477.16
2022-12-03T06:12:24.427Z,102484.78
2022-12-03T06:16:24.222Z,102477.34
2022-12-03T06:20:23.464Z,102493.81
2022-12-03T06:24:23.007Z,102461.00
2022-12-03T06:28:24.897Z,102490.84
2022-12-03T06:32:24.506Z,102497.59
2022-12-03T06:36:25.736Z,102469.56
2022-12-03T06:40:26.515Z,102500.34
2022-12-03T06:44:28.137Z,102500.47
2022-12-03T06:48:27.788Z,102505.03
2022-12-03T06:52:30.022Z,102512.63
2022-12-03T06:56:39.217Z,102516.16
2022-12-03T07:00:45.283Z,102492.78
2022-12-03T07:04:52.770Z,102506.28
2022-12-03T07:08:56.461Z,102510.94
2022-12-03T07:12:58.923Z,102506.97
2022-12-03T07:17:00.857Z,102508.03
2022-12-03T07:21:00.419Z,102502.47
2022-12-03T07:24:59.899Z,102511.50
2022-12-03T07:28:59.695Z,102478.91
2022-12-03T07:33:01.449Z,102508.88
2022-12-03T07:37:00.993Z,102481.53
2022-12-03T07:41:00.249Z,102510.88
2022-12-03T07:44:59.772Z,102510.59
2022-12-03T07:49:03.076Z,102505.28
2022-12-03T07:53:02.707Z,102476.69
2022-12-03T07:57:02.850Z,102509.81
2022-12-03T08:01:02.813Z,102513.56
2022-12-03T08:05:04.606Z,102519.72
2022-12-03T08:09:04.362Z,102513.66
2022-12-03T08:13:06.868Z,102527.47
2022-12-03T08:17:13.240Z,102536.53
2022-12-03T08:21:17.476Z,102541.06
2022-12-03T08:25:23.713Z,102546.69
2022-12-03T08:29:24.256Z,102546.16
2022-12-03T08:33:28.505Z,102541.81
2022-12-03T08:37:31.931Z,102544.16
2022-12-03T08:41:48.491Z,102538.97
2022-12-03T08:45:49.406Z,102529.41
2022-12-03T08:49:55.602Z,102530.25
2022-12-03T08:54:05.971Z,102517.53
2022-12-03T08:58:23.108Z,102531.31
2022-12-03T09:02:33.059Z,102520.13
2022-12-03T09:06:32.323Z,102513.66
2022-12-03T09:10:33.877Z,102518.63
2022-12-03T09:14:33.465Z,102512.31
2022-12-03T09:18:32.705Z,102484.41
2022-12-03T09:22:32.830Z,102512.94
2022-12-03T09:26:34.143Z,102498.97
2022-12-03T09:30:33.836Z,102501.59
2022-12-03T09:34:34.401Z,102510.97
2022-12-03T09:38:33.402Z,102473.81
2022-12-03T09:42:35.439Z,102504.50
2022-12-03T09:46:36.224Z,102503.13
2022-12-03T09:50:46.724Z,102497.22
2022-12-03T09:54:51.900Z,102504.56
2022-12-03T09:58:54.247Z,102469.81
2022-12-03T10:02:56.765Z,102477.97
2022-12-03T10:06:57.612Z,102491.25
2022-12-03T10:10:58.471Z,102489.78
2022-12-03T10:15:00.232Z,102488.47
2022-12-03T10:19:01.949Z,102482.41
2022-12-03T10:23:01.969Z,102482.22
2022-12-03T10:27:03.741Z,102485.81
2022-12-03T10:31:07.466Z,102486.13
2022-12-03T10:35:10.486Z,102493.41
2022-12-03T10:39:14.315Z,102487.13
2022-12-03T10:43:22.496Z,102494.22
2022-12-03T10:47:25.531Z,102464.72
2022-12-03T10:51:25.196Z,102418.19
2022-12-03T10:55:36.202Z,102479.19
2022-12-03T11:00:05.132Z,102470.66
2022-12-03T11:04:22.367Z,102475.84
2022-12-03T11:08:24.289Z,102470.78
2022-12-03T11:12:25.864Z,102451.03
2022-12-03T11:17:08.380Z,102467.50
2022-12-03T11:21:12.755Z,102464.53
2022-12-03T11:25:47.721Z,102474.75
2022-12-03T11:30:02.192Z,102475.66
2022-12-03T11:34:44.584Z,102475.13
2022-12-03T11:38:55.166Z,102474.22
2022-12-03T11:42:54.886Z,102477.91
2022-12-03T11:46:55.025Z,102474.19
2022-12-03T11:50:55.609Z,102465.47
2022-12-03T11:55:03.816Z,102452.22
2022-12-03T11:59:04.433Z,102457.84
2022-12-03T12:03:03.941Z,102456.00
2022-12-03T12:07:03.660Z,102465.38
2022-12-03T12:11:06.207Z,102463.22
2022-12-03T12:15:50.307Z,102474.13
2022-12-03T12:19:54.264Z,102471.09
2022-12-03T12:23:54.302Z,102470.28
2022-12-03T12:27:55.663Z,102465.66
2022-12-03T12:32:01.751Z,102460.53
2022-12-03T12:36:01.234Z,102462.94
2022-12-03T12:40:01.056Z,102458.13
2022-12-03T12:44:03.505Z,102469.38
2022-12-03T12:48:09.806Z,102459.38
2022-12-03T12:52:16.103Z,102443.38
2022-12-03T12:56:29.648Z,102472.06
2022-12-03T13:00:31.633Z,102474.81
2022-12-03T13:04:32.835Z,102470.47
2022-12-03T13:08:34.481Z,102477.41
2022-12-03T13:12:34.067Z,102477.94
2022-12-03T13:16:36.189Z,102476.78
2022-12-03T13:20:35.849Z,102489.28
2022-12-03T13:24:35.874Z,102489.28
2022-12-03T13:28:36.745Z,102490.06
2022-12-03T13:32:39.563Z,102489.53
2022-12-03T13:36:43.942Z,102463.47
2022-12-03T13:40:43.808Z,102485.81
2022-12-03T13:44:47.381Z,102491.28
2022-12-03T13:48:49.148Z,102495.97
2022-12-03T13:52:49.129Z,102508.66
2022-12-03T13:56:48.638Z,102497.22
2022-12-03T14:00:48.653Z,102464.13
2022-12-03T14:04:58.466Z,102505.50
2022-12-03T14:08:59.637Z,102507.50
2022-12-03T14:12:59.657Z,102507.88
2022-12-03T14:17:00.266Z,102498.75
2022-12-03T14:21:02.035Z,102478.66
2022-12-03T14:25:01.863Z,102456.69
2022-12-03T14:29:05.831Z,102510.03
2022-12-03T14:33:08.055Z,102471.41
2022-12-03T14:37:10.493Z,102512.47
2022-12-03T14:41:30.278Z,102494.97
2022-12-03T14:45:30.254Z,102505.63
2022-12-03T14:49:29.871Z,102507.81
2022-12-03T14:53:31.532Z,102518.16
2022-12-03T14:57:32.371Z,102512.38
2022-12-03T15:01:31.853Z,102519.66
2022-12-03T15:05:31.401Z,102518.19
2022-12-03T15:09:32.875Z,102519.72
2022-12-03T15:13:32.486Z,102531.41
2022-12-03T15:17:32.375Z,102537.41
2022-12-03T15:21:32.421Z,102543.16
2022-12-03T15:25:34.280Z,102545.03
2022-12-03T15:29:34.097Z,102504.06
2022-12-03T15:33:34.438Z,102540.66
2022-12-03T15:37:34.037Z,102504.16
2022-12-03T15:41:36.228Z,102536.47
2022-12-03T15:45:35.865Z,102544.53
2022-12-03T15:49:35.123Z,102544.09
2022-12-03T15:53:34.600Z,102547.03
2022-12-03T15:57:36.259Z,102543.50
2022-12-03T16:01:35.408Z,102542.34
2022-12-03T16:05:35.070Z,102552.28
2022-12-03T16:09:34.746Z,102558.75
2022-12-03T16:13:36.095Z,102556.25
2022-12-03T16:17:38.965Z,102563.25
2022-12-03T16:21:39.210Z,102557.53
2022-12-03T16:25:38.353Z,102559.56
2022-12-03T16:29:40.473Z,102538.16
2022-12-03T16:33:40.037Z,102528.16
2022-12-03T16:37:39.294Z,102560.94
2022-12-03T16:41:39.089Z,102569.41
2022-12-03T16:46:02.094Z,102563.66
2022-12-03T16:50:01.823Z,102572.28
2022-12-03T16:54:01.483Z,102572.91
2022-12-03T16:58:00.735Z,102585.31
2022-12-03T17:02:02.563Z,102588.59
2022-12-03T17:06:02.273Z,102595.69
2022-12-03T17:10:01.473Z,102549.81
2022-12-03T17:14:00.536Z,102594.69
2022-12-03T17:18:03.114Z,102593.06
2022-12-03T17:22:02.647Z,102603.84
2022-12-03T17:26:02.151Z,102600.56
2022-12-03T17:30:01.729Z,102601.25
2022-12-03T17:34:03.090Z,102604.84
2022-12-03T17:38:05.051Z,102606.63
2022-12-03T17:42:04.584Z,102620.47
2022-12-03T17:46:04.660Z,102617.66
2022-12-03T17:50:09.554Z,102618.75
2022-12-03T17:54:09.067Z,102624.25
2022-12-03T17:58:08.373Z,102598.38
2022-12-03T18:02:10.778Z,102623.84
2022-12-03T18:06:12.517Z,102577.06
2022-12-03T18:10:12.419Z,102636.25
2022-12-03T18:14:13.221Z,102639.13
2022-12-03T18:18:13.228Z,102642.81
2022-12-03T18:22:15.125Z,102648.69
2022-12-03T18:26:14.855Z,102617.50
2022-12-03T18:30:15.152Z,102644.50
2022-12-03T18:34:14.707Z,102646.19
2022-12-03T18:38:17.744Z,102638.66
2022-12-03T18:42:19.425Z,102646.97
2022-12-03T18:50:40.722Z,102646.56
2022-12-03T18:54:42.465Z,102650.25
2022-12-03T18:58:42.779Z,102652.44
2022-12-03T19:07:03.366Z,102639.84
2022-12-03T19:11:05.129Z,102660.69
2022-12-03T19:15:05.887Z,102633.19
2022-12-03T19:19:05.467Z,102674.88
2022-12-03T19:23:04.686Z,102641.09
2022-12-03T19:27:06.362Z,102669.25
2022-12-03T19:31:09.076Z,102673.78
2022-12-03T19:35:10.797Z,102681.63
2022-12-03T19:39:10.321Z,102644.66
2022-12-03T19:43:11.980Z,102681.53
2022-12-03T19:47:11.426Z,102683.53
2022-12-03T19:51:32.981Z,102683.75
2022-12-03T19:55:30.989Z,102688.47
2022-12-03T19:59:32.657Z,102684.78
2022-12-03T20:03:32.060Z,102682.66
2022-12-03T20:07:31.762Z,102685.81
2022-12-03T20:11:34.020Z,102687.75
2022-12-03T20:15:38.174Z,102708.03
2022-12-03T20:19:37.666Z,102699.78
2022-12-03T20:23:36.953Z,102691.25
2022-12-03T20:27:36.519Z,102697.00
2022-12-03T20:31:38.151Z,102696.28
2022-12-03T20:35:37.693Z,102695.63
2022-12-03T20:39:37.195Z,102676.47
2022-12-03T20:43:36.986Z,102665.56
2022-12-03T20:47:38.600Z,102701.25
2022-12-03T20:51:38.491Z,102705.50
2022-12-03T20:55:37.971Z,102681.94
2022-12-03T20:59:37.486Z,102705.41
2022-12-03T21:03:39.294Z,102698.81
2022-12-03T21:07:46.030Z,102708.31
2022-12-03T21:11:45.854Z,102650.81
2022-12-03T21:15:46.773Z,102652.81
2022-12-03T21:19:48.689Z,102703.66
2022-12-03T21:23:49.389Z,102698.47
2022-12-03T21:27:48.952Z,102698.38
2022-12-03T21:31:48.274Z,102706.44
2022-12-03T21:35:50.023Z,102709.59
2022-12-03T21:39:52.818Z,102706.09
2022-12-03T21:43:52.775Z,102707.53
2022-12-03T21:47:51.973Z,102700.13
2022-12-03T21:51:53.564Z,102703.84
2022-12-03T21:55:53.297Z,102708.75
2022-12-03T21:59:53.110Z,102709.91
2022-12-03T22:03:53.241Z,102711.25
2022-12-03T22:07:54.927Z,102693.16
2022-12-03T22:11:56.415Z,102707.50
2022-12-03T22:15:55.425Z,102710.22
2022-12-03T22:19:55.001Z,102721.00
2022-12-03T22:23:57.745Z,102717.06
2022-12-03T22:27:57.381Z,102680.47
2022-12-03T22:31:58.537Z,102659.28
2022-12-03T22:36:01.987Z,102663.78
2022-12-03T22:40:03.632Z,102703.25
2022-12-03T22:44:03.201Z,102673.72
2022-12-03T22:48:02.253Z,102697.09
2022-12-03T22:52:01.759Z,102699.91
2022-12-03T22:56:03.437Z,102698.31
2022-12-03T23:00:06.545Z,102697.44
2022-12-03T23:04:06.289Z,102699.69
2022-12-03T23:08:06.213Z,102691.47
2022-12-03T23:12:08.429Z,102688.13
2022-12-03T23:16:09.557Z,102637.88
2022-12-03T23:20:10.560Z,102681.06
2022-12-03T23:24:10.182Z,102646.38
2022-12-03T23:28:12.771Z,102678.03
2022-12-03T23:32:12.288Z,102679.59
2022-12-03T23:36:12.460Z,102680.47
2022-12-03T23:40:13.210Z,102671.75
2022-12-03T23:44:14.810Z,102650.28
2022-12-03T23:48:14.518Z,102654.31
2022-12-03T23:52:13.727Z,102694.47
2022-12-03T23:56:16.085Z,102682.25
